Don's Testing Zone


Current Conditions
weather data
source:

National Weather Service
Clear Hot Springs, AR
Clear, 46°F
Sunday, February 25, 2018 8:53 PM CST
Temperature: 46°F/8°C
Humidity: 71%
Barometer: 30.10in/1019.2mb Barometer Steady
Wind: W at 3mph/6kmh
View other cities:
Searcy | Little Rock | Hot Springs | Russellville | More...
Astronomical Conditions (Clear Sky Clock)
Searcy Clear Sky Clock
Find more weather in Little Rock, AR
    

Radar Images

NWS
    Wx Underground

KARK
   

NWS METAR weather data

ADDS - METARS form results





Aviation Digital Data Service (ADDS) Output produced by METARs form (0310 UTC 26 February 2018) found at http://aviationweather.gov/adds/metars/ 

KHOT 260253Z AUTO 07003KT 10SM CLR 08/03 A3010 RMK AO2 SLP192 T00780033 53010

KHOT 260238Z AUTO 10005KT 10SM FEW028 09/03 A3009 RMK AO2 T00890033

KHOT 260153Z AUTO 08005KT 10SM BKN028 09/04 A3008 RMK AO2 SLP187 T00940044

KHOT 260106Z AUTO 10005KT 10SM BKN029 11/04 A3007 RMK AO2 T01060039

KHOT 260053Z AUTO 11004KT 10SM OVC030 11/03 A3007 RMK AO2 SLP183 T01110033

KHOT 252353Z AUTO 13004KT 10SM CLR 12/02 A3007 RMK AO2 SLP181 T01220022 1013920117 53002

KHOT 252253Z AUTO 13005KT 10SM CLR 13/00 A3005 RMK AO2 SLP174 T01330000

KHOT 252153Z AUTO 09006KT 10SM CLR 14/M01 A3005 RMK AO2 SLP174 T01391006

KHOT 252053Z AUTO 06009KT 10SM CLR 13/01 A3006 RMK AO2 SLP178 T01330011 58017

KHOT 251953Z AUTO 09003KT 10SM CLR 13/03 A3009 RMK AO2 SLP188 T01280028

KHOT 251853Z AUTO 09006KT 10SM CLR 12/02 A3010 RMK AO2 SLP191 T01220017

KHOT 251753Z AUTO 08006KT 10SM CLR 12/02 A3011 RMK AO2 SLP195 T01170022 1011720039 58006

KHOT 251653Z AUTO 07005KT 10SM CLR 11/02 A3012 RMK AO2 SLP199 T01110022

KHOT 251553Z AUTO 10004KT 10SM CLR 09/03 A3014 RMK AO2 SLP206 T00940028

KHOT 251453Z AUTO 10004KT 10SM CLR 08/04 A3013 RMK AO2 SLP201 T00830044 51017

KHOT 251353Z AUTO 00000KT 10SM CLR 07/06 A3012 RMK AO2 SLP197 T00720056

KHOT 251253Z AUTO 00000KT 10SM CLR 05/04 A3010 RMK AO2 SLP193 T00500044

KHOT 251153Z AUTO 00000KT 10SM CLR 05/04 A3008 RMK AO2 SLP184 70151 T0050004410111 20050 53020

KHOT 251053Z AUTO 09004KT 10SM CLR 07/03 A3006 RMK AO2 SLP178 T00720033

KHOT 250953Z AUTO 00000KT 10SM CLR 08/03 A3003 RMK AO2 SLP165 T00780033

KHOT 250853Z AUTO 32004KT 10SM CLR 08/06 A3002 RMK AO2 SLP162 T00780061 50005

KHOT 250753Z AUTO 00000KT 10SM CLR 09/07 A3004 RMK AO2 SLP168 T00890072

KHOT 250653Z AUTO VRB05KT 10SM CLR 10/07 A3002 RMK AO2 SLP164 T01000072

KHOT 250553Z AUTO 31005KT 10SM CLR 11/08 A3001 RMK AO2 SLP157 60000 T0111008310161 20111 402220111 53022

KHOT 250453Z AUTO 31005KT 10SM CLR 12/09 A2998 RMK AO2 SLP149 T01170089

KHOT 250353Z AUTO 32004KT 10SM CLR 12/11 A2996 RMK AO2 SLP142 T01220106

KHOT 250325Z AUTO 31006KT 10SM SCT022 13/11 A2995 RMK AO2 T01280111